Time;durP1;ratioP1;P1;durP2;ratioP2;P2;SDS_P1;SDS_P2;PMS_P1;PMS_P2;Temp;Humidity;BMP_temperature;BMP_pressure;BME280_temperature;BME280_humidity;BME280_pressure;Samples;Min_cycle;Max_cycle;Signal;HPM_P1;HPM_P2
2023/06/21 00:01:55;;;;;;;20.30;18.40;;;;;;;21.30;75.00;98816.23;109481;1251;58953;-80
2023/06/21 00:04:21;;;;;;;19.90;18.00;;;;;;;21.26;75.35;98819.27;109473;1251;59020;-81
2023/06/21 00:06:50;;;;;;;19.40;17.40;;;;;;;21.21;75.60;98815.48;109522;1252;65716;-82
2023/06/21 00:09:17;;;;;;;21.50;19.20;;;;;;;21.16;76.03;98814.93;109475;1255;58963;-81
2023/06/21 00:11:43;;;;;;;19.00;17.20;;;;;;;21.11;76.25;98814.78;109434;1251;59120;-81
2023/06/21 00:14:10;;;;;;;19.70;17.70;;;;;;;21.07;76.50;98815.48;109486;1255;60107;-81
2023/06/21 00:16:37;;;;;;;19.40;17.70;;;;;;;21.02;76.70;98821.02;109447;1251;58999;-81
2023/06/21 00:19:03;;;;;;;19.60;17.70;;;;;;;20.99;76.85;98820.52;109471;1251;59450;-81
2023/06/21 00:21:30;;;;;;;20.80;18.90;;;;;;;20.95;77.23;98816.23;109467;1251;59043;-80
2023/06/21 00:23:57;;;;;;;20.30;18.50;;;;;;;20.93;77.53;98812.67;109520;1252;64108;-81
2023/06/21 00:26:23;;;;;;;20.40;18.60;;;;;;;20.91;77.79;98812.79;109474;1251;59043;-80
2023/06/21 00:28:49;;;;;;;21.30;19.30;;;;;;;20.86;78.04;98810.55;109517;1252;59037;-80
2023/06/21 00:31:16;;;;;;;21.10;18.90;;;;;;;20.83;78.50;98814.31;109461;1251;66120;-80
2023/06/21 00:33:43;;;;;;;20.80;18.90;;;;;;;20.80;78.65;98813.98;109520;1255;58976;-80
2023/06/21 00:36:09;;;;;;;21.90;19.90;;;;;;;20.78;78.88;98816.54;109521;1251;63727;-80
2023/06/21 00:38:35;;;;;;;21.80;18.90;;;;;;;20.76;79.12;98817.86;109503;1251;59105;-80
2023/06/21 00:41:04;;;;;;;20.30;18.30;;;;;;;20.74;79.27;98820.48;109338;1251;59212;-80
2023/06/21 00:43:31;;;;;;;21.80;19.80;;;;;;;20.69;79.60;98821.35;109464;1255;66062;-81
2023/06/21 00:45:58;;;;;;;21.50;19.40;;;;;;;20.65;79.91;98829.23;109522;1251;60439;-80
2023/06/21 00:48:28;;;;;;;21.90;19.80;;;;;;;20.60;80.38;98834.67;109535;1251;64108;-80
2023/06/21 00:50:56;;;;;;;21.00;19.00;;;;;;;20.54;80.84;98838.38;109504;1251;59096;-81
2023/06/21 00:53:26;;;;;;;21.50;19.50;;;;;;;20.50;81.02;98844.02;109497;1251;59099;-80
2023/06/21 00:55:54;;;;;;;21.80;19.70;;;;;;;20.48;81.22;98844.98;109381;1251;65970;-80
2023/06/21 00:58:21;;;;;;;22.00;20.10;;;;;;;20.47;81.48;98844.55;109533;1251;59106;-81
2023/06/21 01:00:51;;;;;;;22.50;20.30;;;;;;;20.47;81.66;98846.35;109535;1251;62641;-81
2023/06/21 01:03:20;;;;;;;22.20;19.90;;;;;;;20.47;81.95;98844.13;109477;1251;59042;-81
2023/06/21 01:05:55;;;;;;;23.10;20.90;;;;;;;20.47;82.20;98846.69;109484;1251;59134;-81
2023/06/21 01:08:30;;;;;;;23.40;21.50;;;;;;;20.48;82.48;98845.09;109621;1251;64534;-80
2023/06/21 01:11:30;;;;;;;22.20;20.10;;;;;;;20.52;82.68;98838.73;109708;1251;60139;-80
2023/06/21 01:14:23;;;;;;;20.90;18.90;;;;;;;20.54;83.34;98836.13;109625;1251;63602;-80
2023/06/21 01:16:53;;;;;;;23.20;20.80;;;;;;;20.55;83.43;98835.14;109642;1251;59104;-80
2023/06/21 01:19:47;;;;;;;22.60;20.50;;;;;;;20.56;83.63;98838.66;109741;1251;58914;-81
2023/06/21 01:22:37;;;;;;;21.10;18.90;;;;;;;20.56;84.10;98834.66;109706;1251;65734;-80
2023/06/21 01:25:24;;;;;;;21.10;18.80;;;;;;;20.53;84.35;98837.52;109835;1251;60171;-79
2023/06/21 01:28:17;;;;;;;21.30;19.20;;;;;;;20.52;84.67;98839.11;109575;1251;64117;-79
2023/06/21 01:30:46;;;;;;;22.00;19.70;;;;;;;20.52;84.95;98838.13;109521;1251;59018;-81
2023/06/21 01:33:17;;;;;;;22.70;20.50;;;;;;;20.54;85.57;98843.57;109527;1251;59374;-80
2023/06/21 01:35:44;;;;;;;22.50;20.40;;;;;;;20.56;85.99;98841.89;109591;1251;64807;-80
2023/06/21 01:38:11;;;;;;;22.90;20.80;;;;;;;20.56;86.36;98840.27;109348;1251;59871;-80
2023/06/21 01:40:38;;;;;;;22.30;20.10;;;;;;;20.56;86.31;98836.47;109473;1251;64075;-80
2023/06/21 01:43:06;;;;;;;22.70;20.60;;;;;;;20.57;86.64;98827.52;109490;1251;58966;-81
2023/06/21 01:45:32;;;;;;;22.00;19.90;;;;;;;20.57;87.29;98818.33;109343;1251;58943;-80
2023/06/21 01:48:00;;;;;;;21.50;19.60;;;;;;;20.56;87.57;98813.36;109469;1251;67251;-80
2023/06/21 01:50:26;;;;;;;22.10;20.00;;;;;;;20.54;87.99;98808.70;109453;1251;60481;-81
2023/06/21 01:52:55;;;;;;;22.90;20.70;;;;;;;20.51;88.27;98811.58;109458;1251;62619;-81
2023/06/21 01:55:22;;;;;;;23.90;20.70;;;;;;;20.46;88.60;98817.05;109487;1251;59038;-81
2023/06/21 01:57:49;;;;;;;23.80;21.50;;;;;;;20.41;89.03;98816.65;109519;1251;59241;-81
2023/06/21 02:00:31;;;;;;;23.10;20.90;;;;;;;20.35;89.54;98817.48;109528;1251;66115;-81
2023/06/21 02:03:06;;;;;;;22.20;20.30;;;;;;;20.29;90.11;98821.01;109496;1251;59000;-81
2023/06/21 02:05:33;;;;;;;22.80;20.60;;;;;;;20.25;90.72;98822.19;109463;1251;64061;-81
2023/06/21 02:08:00;;;;;;;21.00;19.20;;;;;;;20.21;91.15;98817.05;109413;1251;59046;-81
2023/06/21 02:10:27;;;;;;;23.60;21.40;;;;;;;20.16;91.48;98814.72;109347;1251;59017;-81
2023/06/21 02:12:54;;;;;;;23.30;21.20;;;;;;;20.12;92.15;98812.64;109485;1251;66134;-81
2023/06/21 02:15:20;;;;;;;23.80;21.60;;;;;;;20.08;92.71;98810.73;109495;1251;60667;-81
2023/06/21 02:17:50;;;;;;;24.00;21.70;;;;;;;20.06;93.51;98808.58;109493;1251;63788;-81
2023/06/21 02:20:18;;;;;;;;;;;;;;;20.04;94.03;98809.91;109446;1251;58982;-81
2023/06/21 02:22:45;;;;;;;24.00;21.90;;;;;;;19.99;94.69;98810.44;109549;1251;59239;-81
2023/06/21 02:25:13;;;;;;;24.10;21.60;;;;;;;19.97;95.23;98810.91;109459;1251;66063;-81
2023/06/21 02:27:40;;;;;;;23.70;21.30;;;;;;;19.93;96.25;98812.52;109478;1251;59190;-80
2023/06/21 02:30:08;;;;;;;22.90;20.80;;;;;;;19.90;96.74;98815.87;109411;1251;64088;-80
2023/06/21 02:32:34;;;;;;;24.30;22.00;;;;;;;19.90;97.08;98820.98;109453;1251;58958;-80
2023/06/21 02:35:01;;;;;;;25.20;22.70;;;;;;;19.90;97.55;98822.99;109517;1251;59372;-80
2023/06/21 02:37:28;;;;;;;24.10;21.70;;;;;;;19.89;97.97;98824.89;109379;1251;65737;-80
2023/06/21 02:39:55;;;;;;;22.70;20.50;;;;;;;19.89;98.06;98828.31;109486;1251;60114;-81
2023/06/21 02:42:22;;;;;;;24.40;22.10;;;;;;;19.89;98.03;98820.13;109385;1251;64099;-80
2023/06/21 02:44:49;;;;;;;23.80;21.60;;;;;;;19.91;99.02;98812.23;109358;1251;59136;-80
2023/06/21 02:47:15;;;;;;;25.50;22.80;;;;;;;19.90;98.99;98809.95;109473;1251;59537;-80
2023/06/21 02:49:42;;;;;;;24.20;21.70;;;;;;;19.92;99.42;98812.12;109469;1251;58946;-81
2023/06/21 02:52:08;;;;;;;23.20;20.80;;;;;;;19.92;99.80;98810.05;109529;1251;59073;-81
2023/06/21 02:54:35;;;;;;;22.30;20.20;;;;;;;19.94;100.00;98811.75;109504;1251;59546;-81
2023/06/21 02:57:02;;;;;;;22.80;20.80;;;;;;;19.95;100.00;98813.16;109261;1251;59091;-81
2023/06/21 02:59:28;;;;;;;22.50;20.50;;;;;;;19.98;100.00;98816.86;109491;1251;58998;-81
2023/06/21 03:01:55;;;;;;;22.60;20.70;;;;;;;20.01;100.00;98812.20;109456;1251;66055;-81
2023/06/21 03:04:22;;;;;;;22.90;20.70;;;;;;;20.05;100.00;98811.05;109518;1251;59462;-81
2023/06/21 03:06:48;;;;;;;22.60;20.50;;;;;;;20.08;100.00;98818.86;109502;1251;59069;-81
2023/06/21 03:09:15;;;;;;;22.00;20.10;;;;;;;20.11;100.00;98820.16;109478;1251;59279;-81
2023/06/21 03:11:41;;;;;;;23.00;21.00;;;;;;;20.15;100.00;98826.71;109525;1251;59019;-81
2023/06/21 03:14:08;;;;;;;22.80;20.80;;;;;;;20.21;100.00;98824.05;109491;1251;65064;-80
2023/06/21 03:16:34;;;;;;;23.10;21.00;;;;;;;20.27;100.00;98824.39;109510;1251;60071;-82
2023/06/21 03:19:01;;;;;;;23.00;20.80;;;;;;;20.31;100.00;98826.40;109572;1250;59036;-81
2023/06/21 03:21:27;;;;;;;23.20;20.80;;;;;;;20.37;100.00;98832.78;109359;1250;59087;-80
2023/06/21 03:23:54;;;;;;;22.70;20.80;;;;;;;20.43;100.00;98832.88;109698;1250;59370;-80
2023/06/21 03:26:27;;;;;;;22.90;20.70;;;;;;;20.51;100.00;98834.48;109684;1249;66029;-81
2023/06/21 03:28:54;;;;;;;23.80;21.60;;;;;;;20.59;100.00;98831.08;109668;1251;60113;-80
2023/06/21 03:31:20;;;;;;;21.20;19.40;;;;;;;20.67;99.99;98835.06;109270;1250;62686;-82
2023/06/21 03:33:47;;;;;;;21.60;19.70;;;;;;;20.93;99.54;98835.21;109673;1250;58933;-82
2023/06/21 03:36:14;;;;;;;22.00;20.10;;;;;;;21.56;97.21;98836.54;109375;1250;59120;-83
2023/06/21 03:38:41;;;;;;;21.80;19.50;;;;;;;22.37;93.56;98836.93;109708;1250;66009;-83
2023/06/21 03:41:07;;;;;;;20.10;18.30;;;;;;;23.12;89.92;98836.04;109675;1251;59104;-83
2023/06/21 03:43:34;;;;;;;20.10;18.20;;;;;;;23.80;86.60;98838.54;109694;1251;64076;-82
2023/06/21 03:46:00;;;;;;;18.90;17.30;;;;;;;24.43;83.63;98844.08;109673;1251;58975;-82
2023/06/21 03:48:27;;;;;;;19.20;17.50;;;;;;;24.94;80.96;98846.17;109690;1250;59063;-82
2023/06/21 03:50:53;;;;;;;19.20;17.50;;;;;;;25.45;78.76;98848.06;109686;1250;59028;-81
2023/06/21 03:53:20;;;;;;;19.40;18.00;;;;;;;25.90;76.39;98847.79;109716;1251;60161;-82
2023/06/21 03:55:46;;;;;;;18.40;16.80;;;;;;;25.68;75.11;98850.78;109652;1251;59089;-81
2023/06/21 03:58:13;;;;;;;19.30;17.60;;;;;;;25.19;75.15;98854.88;109734;1249;58958;-81
2023/06/21 04:00:40;;;;;;;19.90;18.10;;;;;;;24.81;75.07;98859.13;109417;1250;59023;-82
2023/06/21 04:03:06;;;;;;;19.00;17.10;;;;;;;24.53;75.36;98859.77;109692;1250;66584;-82
2023/06/21 04:05:33;;;;;;;19.10;17.60;;;;;;;24.34;75.56;98859.67;109709;1250;60650;-82
2023/06/21 04:07:59;;;;;;;19.70;17.80;;;;;;;24.16;75.90;98862.60;109709;1250;59004;-82
2023/06/21 04:10:26;;;;;;;19.80;18.10;;;;;;;23.99;76.22;98862.69;109728;1250;58938;-82
2023/06/21 04:12:52;;;;;;;19.90;18.10;;;;;;;23.86;76.42;98861.27;109705;1250;59225;-82
2023/06/21 04:15:20;;;;;;;18.60;17.00;;;;;;;23.78;76.69;98865.95;109675;1249;59261;-82
2023/06/21 04:17:49;;;;;;;19.10;17.40;;;;;;;23.72;77.34;98871.17;109458;1251;60163;-82
2023/06/21 04:20:15;;;;;;;18.80;17.10;;;;;;;23.69;77.18;98870.81;109702;1250;64047;-82
2023/06/21 04:22:42;;;;;;;19.00;17.50;;;;;;;23.69;77.47;98866.71;109641;1250;58975;-83
2023/06/21 04:25:09;;;;;;;19.20;17.50;;;;;;;23.69;77.57;98867.97;109710;1250;58931;-82
2023/06/21 04:27:36;;;;;;;18.40;16.90;;;;;;;23.70;77.25;98873.98;109702;1250;65694;-82
2023/06/21 04:30:03;;;;;;;19.60;17.90;;;;;;;23.71;77.02;98871.90;109685;1250;59201;-83
2023/06/21 04:32:32;;;;;;;19.80;18.10;;;;;;;23.77;76.98;98874.05;109676;1250;63727;-83
2023/06/21 04:34:59;;;;;;;19.50;17.70;;;;;;;23.82;76.63;98872.11;109380;1250;58994;-83
2023/06/21 04:37:28;;;;;;;19.10;17.40;;;;;;;23.91;76.54;98870.04;109670;1249;59002;-82
2023/06/21 04:39:55;;;;;;;20.10;16.50;;;;;;;24.32;75.41;98874.52;109662;1250;65317;-82
2023/06/21 04:42:21;;;;;;;17.60;16.10;;;;;;;24.87;73.98;98874.52;109671;1251;59001;-82
2023/06/21 04:44:49;;;;;;;17.70;16.10;;;;;;;25.27;72.77;98868.83;109681;1250;59857;-82
2023/06/21 04:47:16;;;;;;;16.90;15.40;;;;;;;25.82;71.10;98864.66;109723;1250;58976;-82
2023/06/21 04:49:43;;;;;;;17.20;15.70;;;;;;;26.18;69.58;98859.17;109721;1250;58999;-82
2023/06/21 04:52:10;;;;;;;16.10;14.80;;;;;;;26.65;68.26;98855.84;109561;1251;65332;-82
2023/06/21 04:54:37;;;;;;;16.60;15.30;;;;;;;26.95;67.22;98856.89;109717;1250;60138;-83
2023/06/21 04:57:04;;;;;;;17.10;15.80;;;;;;;27.26;66.41;98857.92;109718;1250;63772;-82
2023/06/21 04:59:31;;;;;;;16.90;15.20;;;;;;;27.93;64.99;98856.19;109060;1250;59014;-83
2023/06/21 05:01:58;;;;;;;16.30;14.80;;;;;;;28.47;63.74;98858.48;109727;1249;59122;-83
2023/06/21 05:04:24;;;;;;;16.10;14.70;;;;;;;28.89;62.81;98859.33;109507;1250;66069;-84
2023/06/21 05:06:51;;;;;;;15.60;14.30;;;;;;;29.42;61.31;98860.41;109728;1249;59886;-84
2023/06/21 05:09:17;;;;;;;16.90;15.30;;;;;;;29.85;59.86;98860.17;109675;1250;59073;-84
2023/06/21 05:11:44;;;;;;;14.70;13.60;;;;;;;30.16;58.80;98854.61;109691;1250;59271;-85
2023/06/21 05:14:10;;;;;;;14.60;13.40;;;;;;;30.42;57.83;98852.13;109733;1249;59167;-84
2023/06/21 05:16:40;;;;;;;14.20;13.10;;;;;;;30.78;56.76;98856.69;109706;1250;65843;-84
2023/06/21 05:19:07;;;;;;;15.20;13.80;;;;;;;31.14;55.45;98857.25;109704;1250;58978;-84
2023/06/21 05:21:33;;;;;;;14.50;13.40;;;;;;;31.46;54.58;98861.64;109646;1250;62883;-84
2023/06/21 05:24:00;;;;;;;15.30;14.10;;;;;;;31.89;53.75;98862.83;109658;1250;59051;-84
2023/06/21 05:26:26;;;;;;;15.20;13.70;;;;;;;32.30;52.79;98858.96;109703;1250;59126;-83
2023/06/21 05:28:53;;;;;;;14.10;13.00;;;;;;;32.66;51.78;98856.20;109756;1249;59039;-85
2023/06/21 05:31:19;;;;;;;15.00;13.80;;;;;;;32.97;50.81;98856.94;109693;1249;60145;-84
2023/06/21 05:33:46;;;;;;;15.10;13.70;;;;;;;33.27;49.93;98857.08;109671;1249;62494;-83
2023/06/21 05:36:12;;;;;;;15.00;13.70;;;;;;;33.56;49.12;98855.85;109710;1250;58994;-84
2023/06/21 05:38:39;;;;;;;15.30;14.20;;;;;;;33.89;48.35;98856.20;109685;1250;59383;-83
2023/06/21 05:41:05;;;;;;;14.50;13.40;;;;;;;34.10;47.77;98857.37;109382;1251;59204;-78
2023/06/21 05:43:32;;;;;;;14.80;13.60;;;;;;;34.38;47.36;98861.92;109650;1250;59216;-76
2023/06/21 05:45:58;;;;;;;14.00;12.80;;;;;;;34.59;46.48;98859.11;109671;1250;59267;-85
2023/06/21 05:48:25;;;;;;;14.50;13.30;;;;;;;34.47;45.88;98859.52;109660;1249;58936;-84
2023/06/21 05:50:51;;;;;;;13.10;11.40;;;;;;;34.33;45.92;98853.02;109726;1250;59134;-80
2023/06/21 05:53:18;;;;;;;16.60;13.00;;;;;;;34.44;45.37;98856.73;109662;1250;58943;-84
2023/06/21 05:55:46;;;;;;;13.60;12.40;;;;;;;34.31;45.56;98850.91;109686;1250;59032;-81
2023/06/21 05:58:12;;;;;;;12.80;11.60;;;;;;;33.87;45.83;98851.50;109668;1250;62634;-84
2023/06/21 06:00:39;;;;;;;14.30;13.00;;;;;;;33.27;46.32;98854.60;109659;1250;58971;-84
2023/06/21 06:03:05;;;;;;;13.60;12.30;;;;;;;32.95;46.84;98851.70;109678;1250;59055;-83
2023/06/21 06:05:32;;;;;;;13.90;12.60;;;;;;;32.74;47.11;98852.14;109663;1250;66929;-83
2023/06/21 06:08:04;;;;;;;15.30;13.30;;;;;;;32.64;47.52;98856.61;109716;1249;60073;-84
2023/06/21 06:10:30;;;;;;;14.50;13.30;;;;;;;32.88;47.42;98856.11;109483;1251;64080;-83
2023/06/21 06:12:57;;;;;;;14.30;13.10;;;;;;;32.82;47.62;98856.52;109649;1250;59063;-84
2023/06/21 06:15:23;;;;;;;14.60;13.50;;;;;;;32.66;47.82;98852.08;109706;1249;59110;-83
2023/06/21 06:17:50;;;;;;;14.00;12.70;;;;;;;32.75;47.75;98844.49;109697;1250;67111;-83
2023/06/21 06:20:17;;;;;;;13.50;12.30;;;;;;;32.94;47.61;98838.73;109713;1250;59883;-83
2023/06/21 06:22:43;;;;;;;13.50;12.50;;;;;;;33.30;47.38;98834.70;109702;1250;62518;-83
2023/06/21 06:25:10;;;;;;;13.30;12.30;;;;;;;33.77;46.66;98832.63;109712;1250;59008;-83
2023/06/21 06:27:37;;;;;;;14.80;13.70;;;;;;;33.87;46.25;98838.27;109714;1250;59085;-84
2023/06/21 06:30:04;;;;;;;15.50;14.10;;;;;;;33.84;46.24;98835.97;109701;1250;65853;-83
2023/06/21 06:32:31;;;;;;;13.80;12.80;;;;;;;33.95;46.37;98838.48;109749;1250;59534;-84
2023/06/21 06:34:57;;;;;;;14.60;13.20;;;;;;;34.06;46.18;98838.91;109509;1250;64302;-86
2023/06/21 06:37:24;;;;;;;14.40;13.30;;;;;;;33.82;46.11;98843.85;109698;1250;58941;-84
2023/06/21 06:39:52;;;;;;;13.80;12.70;;;;;;;33.40;46.18;98846.27;109680;1249;58921;-84
2023/06/21 06:42:19;;;;;;;15.40;14.20;;;;;;;33.21;46.66;98847.84;109553;1251;65099;-84
2023/06/21 06:44:46;;;;;;;14.40;13.10;;;;;;;33.04;46.94;98848.17;109733;1250;58956;-81
2023/06/21 06:47:13;;;;;;;14.30;12.90;;;;;;;33.09;47.00;98848.80;109667;1250;62887;-85
2023/06/21 06:49:40;;;;;;;15.50;14.30;;;;;;;32.94;47.34;98852.27;109661;1250;59112;-86
2023/06/21 06:52:06;;;;;;;15.40;14.00;;;;;;;32.76;47.51;98850.86;109716;1249;59108;-84
2023/06/21 06:54:33;;;;;;;14.80;13.60;;;;;;;32.63;47.50;98854.17;109700;1250;65746;-76
2023/06/21 06:56:59;;;;;;;14.80;13.60;;;;;;;32.44;47.90;98854.30;109689;1249;60067;-75
2023/06/21 06:59:26;;;;;;;15.70;14.50;;;;;;;32.60;47.92;98855.95;109721;1250;63764;-77
2023/06/21 07:01:52;;;;;;;16.20;14.90;;;;;;;32.66;47.73;98857.59;109666;1249;58951;-76
2023/06/21 07:04:19;;;;;;;15.00;13.60;;;;;;;32.46;47.96;98859.20;109671;1249;58939;-77
2023/06/21 07:06:45;;;;;;;15.70;14.40;;;;;;;32.33;48.16;98862.05;109653;1250;65743;-76
2023/06/21 07:09:12;;;;;;;16.10;14.80;;;;;;;32.28;48.04;98860.08;109721;1250;59217;-77
2023/06/21 07:11:38;;;;;;;15.90;14.10;;;;;;;32.38;47.97;98865.23;109669;1250;59124;-76
2023/06/21 07:14:05;;;;;;;15.40;14.10;;;;;;;32.71;47.76;98868.60;109670;1249;58959;-77
2023/06/21 07:16:35;;;;;;;16.50;15.00;;;;;;;32.98;47.50;98869.44;109720;1250;58923;-77
2023/06/21 07:19:05;;;;;;;16.00;14.60;;;;;;;33.17;47.43;98869.75;109686;1250;66050;-76
2023/06/21 07:21:31;;;;;;;15.50;14.10;;;;;;;33.20;47.52;98872.77;109541;1249;60033;-74
2023/06/21 07:23:58;;;;;;;14.50;13.40;;;;;;;33.17;47.41;98871.91;109678;1249;62801;-77
2023/06/21 07:26:24;;;;;;;16.90;15.30;;;;;;;33.11;47.44;98872.15;109513;1250;59015;-76
2023/06/21 07:28:51;;;;;;;16.50;15.10;;;;;;;32.98;47.43;98868.27;109668;1250;59029;-77
2023/06/21 07:31:17;;;;;;;17.40;15.80;;;;;;;32.89;47.69;98861.11;109524;1250;65748;-77
2023/06/21 07:33:44;;;;;;;16.60;15.40;;;;;;;32.84;48.02;98858.22;109705;1250;59253;-77
2023/06/21 07:36:10;;;;;;;17.00;15.50;;;;;;;32.85;48.25;98856.58;109691;1249;59070;-75
2023/06/21 07:38:37;;;;;;;16.80;15.30;;;;;;;32.95;48.33;98859.13;109675;1249;59036;-76
2023/06/21 07:41:03;;;;;;;16.40;14.90;;;;;;;33.13;48.19;98861.06;109699;1250;58885;-76
2023/06/21 07:43:30;;;;;;;17.20;15.70;;;;;;;33.23;47.83;98863.87;109734;1249;59261;-77
2023/06/21 07:45:56;;;;;;;16.40;15.10;;;;;;;33.08;47.88;98864.41;109699;1249;59402;-76
2023/06/21 07:48:23;;;;;;;16.40;15.00;;;;;;;32.92;47.90;98862.33;109692;1250;59019;-77
2023/06/21 07:50:49;;;;;;;17.70;16.10;;;;;;;32.73;47.98;98866.20;109631;1249;59035;-75
2023/06/21 07:53:16;;;;;;;16.90;15.60;;;;;;;32.62;48.38;98867.21;109728;1250;59030;-75
2023/06/21 07:55:43;;;;;;;15.90;14.60;;;;;;;32.61;48.44;98867.16;109689;1249;65964;-76
2023/06/21 07:58:10;;;;;;;16.80;15.10;;;;;;;32.60;48.48;98863.89;109735;1250;59870;-76
2023/06/21 08:00:36;;;;;;;17.80;16.20;;;;;;;32.55;48.43;98863.20;109685;1250;64074;-76
2023/06/21 08:03:03;;;;;;;16.80;15.40;;;;;;;32.46;48.87;98864.28;109675;1249;59051;-76
2023/06/21 08:05:29;;;;;;;18.20;16.30;;;;;;;32.41;49.00;98866.95;109681;1250;58934;-76
2023/06/21 08:08:01;;;;;;;18.80;16.90;;;;;;;32.41;49.24;98868.31;109734;1250;59327;-76
2023/06/21 08:10:28;;;;;;;17.40;16.00;;;;;;;32.48;49.19;98867.75;109681;1249;59872;-75
2023/06/21 08:12:55;;;;;;;17.60;16.00;;;;;;;32.47;49.12;98865.73;109723;1249;64039;-75
2023/06/21 08:15:21;;;;;;;16.00;14.80;;;;;;;32.49;49.04;98860.20;109676;1249;58940;-75
2023/06/21 08:17:49;;;;;;;16.60;15.00;;;;;;;32.51;49.10;98861.02;109691;1249;58920;-76
2023/06/21 08:20:16;;;;;;;15.70;14.50;;;;;;;32.59;49.38;98864.59;109712;1250;64867;-74
2023/06/21 08:22:43;;;;;;;17.30;14.60;;;;;;;32.75;49.37;98867.67;109675;1250;60213;-75
2023/06/21 08:25:09;;;;;;;16.10;14.70;;;;;;;32.81;49.42;98863.58;109522;1251;64054;-76
2023/06/21 08:27:36;;;;;;;16.10;14.50;;;;;;;32.94;49.55;98864.02;109617;1249;59052;-77
2023/06/21 08:30:03;;;;;;;15.40;14.00;;;;;;;33.16;49.47;98863.77;109654;1249;59035;-77
2023/06/21 08:32:29;;;;;;;14.50;13.30;;;;;;;33.36;49.11;98861.52;109171;1250;64484;-75
2023/06/21 08:34:56;;;;;;;14.00;12.70;;;;;;;33.55;49.20;98861.15;109670;1250;60101;-76
2023/06/21 08:37:25;;;;;;;15.50;14.20;;;;;;;33.71;48.78;98864.52;109656;1249;64078;-75
2023/06/21 08:39:56;;;;;;;15.30;14.10;;;;;;;33.76;48.49;98865.69;109646;1249;59032;-77
2023/06/21 08:42:26;;;;;;;15.00;13.80;;;;;;;33.87;48.44;98865.48;109680;1249;58889;-76
2023/06/21 08:44:57;;;;;;;13.80;12.60;;;;;;;34.04;48.10;98866.31;109706;1249;65737;-76
2023/06/21 08:47:28;;;;;;;15.30;13.90;;;;;;;34.14;47.74;98864.11;109661;1250;59944;-76
2023/06/21 08:49:58;;;;;;;15.10;13.50;;;;;;;34.24;47.27;98867.60;109445;1249;64113;-77
2023/06/21 08:52:27;;;;;;;15.30;13.80;;;;;;;34.25;46.92;98867.95;109666;1249;59783;-76
2023/06/21 08:55:08;;;;;;;13.40;12.20;;;;;;;34.28;46.78;98866.20;109674;1250;59057;-77
2023/06/21 08:57:58;;;;;;;13.70;12.40;;;;;;;34.50;46.60;98874.27;109395;1250;66060;-76
2023/06/21 09:00:39;;;;;;;12.50;11.50;;;;;;;34.71;46.12;98871.45;109703;1249;60227;-75
2023/06/21 09:03:29;;;;;;;13.20;12.00;;;;;;;34.85;45.96;98875.11;109672;1249;62514;-75
2023/06/21 09:06:08;;;;;;;13.50;11.90;;;;;;;35.02;45.34;98877.31;109673;1250;58975;-76
2023/06/21 09:08:37;;;;;;;13.80;12.50;;;;;;;35.04;44.89;98881.31;109706;1250;58977;-75
2023/06/21 09:11:07;;;;;;;13.80;12.50;;;;;;;35.04;44.40;98883.64;109679;1251;65743;-76
2023/06/21 09:13:34;;;;;;;13.00;11.90;;;;;;;35.05;44.26;98884.92;109706;1249;58934;-76
2023/06/21 09:16:02;;;;;;;13.10;11.90;;;;;;;35.02;44.08;98887.56;109693;1249;63816;-75
2023/06/21 09:18:35;;;;;;;12.10;11.00;;;;;;;35.06;44.10;98886.48;109687;1249;59042;-77
2023/06/21 09:21:03;;;;;;;12.00;11.00;;;;;;;35.03;43.73;98887.34;109704;1249;59347;-75
2023/06/21 09:23:29;;;;;;;21.20;12.30;;;;;;;35.14;43.69;98889.55;109718;1250;66044;-74
2023/06/21 09:25:56;;;;;;;13.70;11.90;;;;;;;35.37;43.84;98886.94;109680;1249;59053;-75
2023/06/21 09:28:22;;;;;;;14.10;11.50;;;;;;;35.59;43.45;98882.77;109673;1249;62835;-75
2023/06/21 09:30:49;;;;;;;15.30;12.10;;;;;;;35.60;42.59;98884.23;109677;1250;59043;-77
2023/06/21 09:33:16;;;;;;;12.60;11.40;;;;;;;35.62;42.66;98886.23;109727;1249;59096;-79
2023/06/21 09:35:43;;;;;;;13.20;11.40;;;;;;;35.55;42.60;98886.61;109696;1249;64824;-79
2023/06/21 09:38:28;;;;;;;11.70;10.60;;;;;;;35.51;42.54;98887.73;109658;1250;60149;-79
2023/06/21 09:40:55;;;;;;;11.40;10.30;;;;;;;35.46;42.24;98887.00;109621;1249;62843;-81
2023/06/21 09:43:22;;;;;;;11.30;10.30;;;;;;;35.46;42.39;98886.50;109683;1249;59035;-79
2023/06/21 09:46:07;;;;;;;11.80;10.70;;;;;;;35.44;42.37;98884.55;109648;1249;59037;-78
2023/06/21 09:48:35;;;;;;;11.20;10.40;;;;;;;35.28;42.25;98889.23;109634;1250;66030;-79
2023/06/21 09:51:03;;;;;;;11.60;10.80;;;;;;;35.18;42.53;98895.80;109654;1250;60143;-78
2023/06/21 09:53:30;;;;;;;11.70;10.70;;;;;;;35.01;41.81;98898.24;109629;1250;64061;-79
2023/06/21 09:55:59;;;;;;;11.60;10.60;;;;;;;34.62;41.60;98898.38;109601;1250;59185;-78
2023/06/21 09:58:27;;;;;;;;;;;;;;;34.42;41.87;98900.52;109659;1249;59172;-77
2023/06/21 10:00:58;;;;;;;12.20;11.00;;;;;;;34.45;42.35;98897.31;109568;1250;66172;-82
2023/06/21 10:03:25;;;;;;;12.50;10.90;;;;;;;34.60;42.64;98897.38;109652;1251;60154;-78
2023/06/21 10:05:57;;;;;;;12.10;11.00;;;;;;;34.76;42.83;98896.04;109641;1251;62832;-77
2023/06/21 10:08:25;;;;;;;11.50;10.70;;;;;;;34.96;43.08;98896.59;109662;1250;59008;-80
2023/06/21 10:10:52;;;;;;;11.20;10.40;;;;;;;35.16;42.64;98898.77;109640;1250;59039;-75
2023/06/21 10:13:27;;;;;;;11.60;10.60;;;;;;;35.25;42.59;98898.83;109668;1249;64968;-77
2023/06/21 10:15:55;;;;;;;11.50;10.50;;;;;;;35.15;41.56;98901.69;109653;1249;59056;-76
2023/06/21 10:18:22;;;;;;;11.30;10.40;;;;;;;34.81;41.01;98897.02;109480;1250;64054;-73
2023/06/21 10:20:55;;;;;;;12.00;10.70;;;;;;;34.58;41.29;98894.92;109639;1251;59186;-74
2023/06/21 10:23:31;;;;;;;13.00;10.40;;;;;;;34.36;41.75;98896.50;109675;1250;59147;-75
2023/06/21 10:26:04;;;;;;;12.70;10.80;;;;;;;34.20;42.13;98894.45;109650;1250;65783;-76
2023/06/21 10:28:41;;;;;;;11.90;10.80;;;;;;;34.03;42.72;98893.73;109654;1250;59031;-77
2023/06/21 10:31:12;;;;;;;12.40;11.30;;;;;;;33.84;42.85;98905.59;109640;1249;63924;-78
2023/06/21 10:33:39;;;;;;;12.10;10.90;;;;;;;33.60;43.29;98913.28;109668;1249;59002;-79
2023/06/21 10:36:10;;;;;;;13.30;11.90;;;;;;;33.48;44.14;98914.52;109675;1250;58871;-73
2023/06/21 10:38:46;;;;;;;11.70;10.50;;;;;;;33.29;44.63;98916.67;109559;1250;65753;-74
2023/06/21 10:41:14;;;;;;;12.70;10.80;;;;;;;33.08;45.23;98921.98;109701;1249;59051;-74
2023/06/21 10:43:42;;;;;;;15.10;11.60;;;;;;;32.78;45.60;98930.05;109546;1250;64121;-72
2023/06/21 10:46:10;;;;;;;18.60;11.80;;;;;;;32.51;46.60;98934.47;109690;1250;58977;-74
2023/06/21 10:48:37;;;;;;;12.60;11.50;;;;;;;32.29;47.20;98939.41;109664;1250;59031;-74
2023/06/21 10:51:04;;;;;;;12.10;11.00;;;;;;;32.02;47.98;98944.81;109435;1251;66614;-73
2023/06/21 10:53:33;;;;;;;15.20;11.50;;;;;;;31.80;48.90;98950.27;109682;1250;60201;-74
2023/06/21 10:56:01;;;;;;;13.90;11.30;;;;;;;31.63;49.84;98956.23;109663;1250;63729;-74
2023/06/21 10:58:28;;;;;;;11.30;10.30;;;;;;;31.44;50.51;98962.79;109521;1251;58951;-74
2023/06/21 11:00:56;;;;;;;12.40;10.10;;;;;;;31.25;51.08;98961.02;109599;1249;59094;-75
2023/06/21 11:03:25;;;;;;;13.20;11.00;;;;;;;31.02;51.46;98962.77;109658;1249;65999;-75
2023/06/21 11:06:16;;;;;;;12.70;11.30;;;;;;;30.80;52.39;98966.05;109665;1250;59058;-74
2023/06/21 11:08:43;;;;;;;11.80;10.70;;;;;;;30.60;53.40;98968.52;109698;1249;64181;-74
2023/06/21 11:11:27;;;;;;;11.50;10.60;;;;;;;30.47;54.23;98972.69;109661;1249;59071;-75
2023/06/21 11:13:53;;;;;;;11.90;11.00;;;;;;;30.24;54.88;98973.02;109506;1250;58989;-75
2023/06/21 11:16:24;;;;;;;12.70;11.70;;;;;;;29.97;55.27;98972.48;109708;1253;64825;-75